sensor_id;sensor_type;location;lat;lon;timestamp;pressure;altitude;pressure_sealevel;temperature;humidity
49949;BME280;35840;45.982;8.890;2023-09-19T00:00:41;98147.03;;;17.43;100.00
49949;BME280;35840;45.982;8.890;2023-09-19T00:03:09;98145.13;;;17.45;100.00
49949;BME280;35840;45.982;8.890;2023-09-19T00:05:37;98147.97;;;17.52;100.00
49949;BME280;35840;45.982;8.890;2023-09-19T00:08:11;98145.75;;;17.57;100.00
49949;BME280;35840;45.982;8.890;2023-09-19T00:10:40;98136.47;;;17.54;100.00
49949;BME280;35840;45.982;8.890;2023-09-19T00:13:09;98136.31;;;17.56;100.00
49949;BME280;35840;45.982;8.890;2023-09-19T00:15:43;98132.47;;;17.60;100.00
49949;BME280;35840;45.982;8.890;2023-09-19T00:18:17;98126.03;;;17.64;100.00
49949;BME280;35840;45.982;8.890;2023-09-19T00:20:45;98128.53;;;17.56;100.00
49949;BME280;35840;45.982;8.890;2023-09-19T00:23:16;98139.22;;;17.53;100.00
49949;BME280;35840;45.982;8.890;2023-09-19T00:25:43;98134.06;;;17.33;100.00
49949;BME280;35840;45.982;8.890;2023-09-19T00:28:09;98141.63;;;17.27;100.00
49949;BME280;35840;45.982;8.890;2023-09-19T00:30:36;98145.88;;;17.18;100.00
49949;BME280;35840;45.982;8.890;2023-09-19T00:33:05;98142.16;;;17.20;100.00
49949;BME280;35840;45.982;8.890;2023-09-19T00:35:34;98155.56;;;17.35;100.00
49949;BME280;35840;45.982;8.890;2023-09-19T00:38:01;98163.72;;;17.41;100.00
49949;BME280;35840;45.982;8.890;2023-09-19T00:40:28;98156.34;;;17.36;100.00
49949;BME280;35840;45.982;8.890;2023-09-19T00:42:59;98153.75;;;17.36;100.00
49949;BME280;35840;45.982;8.890;2023-09-19T00:45:27;98159.66;;;17.38;100.00
49949;BME280;35840;45.982;8.890;2023-09-19T00:47:55;98153.06;;;17.44;100.00
49949;BME280;35840;45.982;8.890;2023-09-19T00:50:25;98145.50;;;17.50;100.00
49949;BME280;35840;45.982;8.890;2023-09-19T00:52:55;98131.00;;;17.48;100.00
49949;BME280;35840;45.982;8.890;2023-09-19T00:55:24;98136.75;;;17.51;100.00
49949;BME280;35840;45.982;8.890;2023-09-19T00:57:52;98141.56;;;17.36;100.00
49949;BME280;35840;45.982;8.890;2023-09-19T01:00:19;98134.16;;;17.14;100.00
49949;BME280;35840;45.982;8.890;2023-09-19T01:02:47;98140.53;;;17.19;100.00
49949;BME280;35840;45.982;8.890;2023-09-19T01:05:15;98147.50;;;17.29;100.00
49949;BME280;35840;45.982;8.890;2023-09-19T01:07:43;98144.09;;;17.28;100.00
49949;BME280;35840;45.982;8.890;2023-09-19T01:10:17;98145.72;;;17.19;100.00
49949;BME280;35840;45.982;8.890;2023-09-19T01:13:05;98149.00;;;17.21;100.00
49949;BME280;35840;45.982;8.890;2023-09-19T01:31:39;98156.44;;;16.97;100.00
49949;BME280;35840;45.982;8.890;2023-09-19T01:34:09;98175.03;;;16.92;100.00
49949;BME280;35840;45.982;8.890;2023-09-19T01:36:37;98176.25;;;16.88;100.00
49949;BME280;35840;45.982;8.890;2023-09-19T01:39:10;98169.16;;;16.90;100.00
49949;BME280;35840;45.982;8.890;2023-09-19T01:41:55;98172.84;;;16.97;100.00
49949;BME280;35840;45.982;8.890;2023-09-19T01:47:33;98164.47;;;16.84;100.00
49949;BME280;35840;45.982;8.890;2023-09-19T01:52:47;98164.50;;;16.64;100.00
49949;BME280;35840;45.982;8.890;2023-09-19T01:55:16;98171.28;;;16.65;100.00
49949;BME280;35840;45.982;8.890;2023-09-19T02:00:28;98165.97;;;16.86;100.00
49949;BME280;35840;45.982;8.890;2023-09-19T02:02:56;98163.50;;;16.85;100.00
49949;BME280;35840;45.982;8.890;2023-09-19T02:05:25;98169.16;;;16.90;100.00
49949;BME280;35840;45.982;8.890;2023-09-19T02:07:54;98162.97;;;16.72;100.00
49949;BME280;35840;45.982;8.890;2023-09-19T02:10:22;98164.34;;;16.85;100.00
49949;BME280;35840;45.982;8.890;2023-09-19T02:12:50;98153.84;;;16.77;100.00
49949;BME280;35840;45.982;8.890;2023-09-19T02:15:17;98162.00;;;16.73;100.00
49949;BME280;35840;45.982;8.890;2023-09-19T02:17:44;98165.44;;;16.63;100.00
49949;BME280;35840;45.982;8.890;2023-09-19T02:20:13;98158.31;;;16.85;100.00
49949;BME280;35840;45.982;8.890;2023-09-19T02:22:41;98161.50;;;16.89;100.00
49949;BME280;35840;45.982;8.890;2023-09-19T02:25:08;98157.38;;;16.86;100.00
49949;BME280;35840;45.982;8.890;2023-09-19T02:27:35;98162.31;;;16.89;100.00
49949;BME280;35840;45.982;8.890;2023-09-19T02:30:04;98160.53;;;16.90;100.00
49949;BME280;35840;45.982;8.890;2023-09-19T02:32:31;98155.47;;;16.68;100.00
49949;BME280;35840;45.982;8.890;2023-09-19T02:34:58;98155.59;;;16.57;100.00
49949;BME280;35840;45.982;8.890;2023-09-19T02:37:27;98147.94;;;16.65;100.00
49949;BME280;35840;45.982;8.890;2023-09-19T02:39:53;98156.84;;;16.63;100.00
49949;BME280;35840;45.982;8.890;2023-09-19T02:42:20;98151.09;;;16.69;100.00
49949;BME280;35840;45.982;8.890;2023-09-19T02:44:48;98140.44;;;16.62;100.00
49949;BME280;35840;45.982;8.890;2023-09-19T02:47:14;98140.44;;;16.72;100.00
49949;BME280;35840;45.982;8.890;2023-09-19T02:49:42;98131.00;;;16.81;100.00
49949;BME280;35840;45.982;8.890;2023-09-19T02:52:09;98130.84;;;16.73;100.00
49949;BME280;35840;45.982;8.890;2023-09-19T02:54:38;98126.88;;;16.78;100.00
49949;BME280;35840;45.982;8.890;2023-09-19T02:57:05;98127.16;;;16.85;100.00
49949;BME280;35840;45.982;8.890;2023-09-19T02:59:33;98129.91;;;16.83;100.00
49949;BME280;35840;45.982;8.890;2023-09-19T03:02:04;98124.72;;;16.54;100.00
49949;BME280;35840;45.982;8.890;2023-09-19T03:04:32;98137.69;;;16.44;100.00
49949;BME280;35840;45.982;8.890;2023-09-19T03:06:59;98140.28;;;16.44;100.00
49949;BME280;35840;45.982;8.890;2023-09-19T03:09:28;98140.84;;;16.48;100.00
49949;BME280;35840;45.982;8.890;2023-09-19T03:11:54;98126.38;;;16.55;100.00
49949;BME280;35840;45.982;8.890;2023-09-19T03:14:21;98117.63;;;16.56;100.00
49949;BME280;35840;45.982;8.890;2023-09-19T03:16:49;98129.50;;;16.39;100.00
49949;BME280;35840;45.982;8.890;2023-09-19T03:19:18;98135.34;;;16.31;100.00
49949;BME280;35840;45.982;8.890;2023-09-19T03:21:47;98136.34;;;16.40;100.00
49949;BME280;35840;45.982;8.890;2023-09-19T03:24:15;98136.19;;;16.42;100.00
49949;BME280;35840;45.982;8.890;2023-09-19T03:26:43;98128.94;;;16.35;100.00
49949;BME280;35840;45.982;8.890;2023-09-19T03:29:10;98143.00;;;16.23;100.00
49949;BME280;35840;45.982;8.890;2023-09-19T03:31:38;98143.22;;;16.00;100.00
49949;BME280;35840;45.982;8.890;2023-09-19T03:34:07;98148.66;;;15.97;100.00
49949;BME280;35840;45.982;8.890;2023-09-19T03:36:34;98153.88;;;16.07;100.00
49949;BME280;35840;45.982;8.890;2023-09-19T03:39:02;98146.38;;;16.04;100.00
49949;BME280;35840;45.982;8.890;2023-09-19T03:41:32;98145.44;;;16.15;100.00
49949;BME280;35840;45.982;8.890;2023-09-19T03:43:59;98140.78;;;16.18;100.00
49949;BME280;35840;45.982;8.890;2023-09-19T03:46:26;98140.28;;;16.25;100.00
49949;BME280;35840;45.982;8.890;2023-09-19T03:48:54;98141.38;;;16.32;100.00
49949;BME280;35840;45.982;8.890;2023-09-19T03:51:22;98135.78;;;16.37;100.00
49949;BME280;35840;45.982;8.890;2023-09-19T03:53:48;98136.03;;;16.24;100.00
49949;BME280;35840;45.982;8.890;2023-09-19T03:56:18;98144.25;;;16.29;100.00
49949;BME280;35840;45.982;8.890;2023-09-19T03:58:45;98149.97;;;16.32;100.00
49949;BME280;35840;45.982;8.890;2023-09-19T04:01:12;98154.22;;;16.33;100.00
49949;BME280;35840;45.982;8.890;2023-09-19T04:03:40;98146.44;;;16.33;100.00
49949;BME280;35840;45.982;8.890;2023-09-19T04:06:15;98140.81;;;16.38;100.00
49949;BME280;35840;45.982;8.890;2023-09-19T04:08:43;98141.09;;;16.35;100.00
49949;BME280;35840;45.982;8.890;2023-09-19T04:11:11;98142.16;;;16.23;100.00
49949;BME280;35840;45.982;8.890;2023-09-19T04:13:38;98140.25;;;16.15;100.00
49949;BME280;35840;45.982;8.890;2023-09-19T04:16:05;98151.75;;;16.32;100.00
49949;BME280;35840;45.982;8.890;2023-09-19T04:18:33;98146.16;;;16.37;100.00
49949;BME280;35840;45.982;8.890;2023-09-19T04:21:04;98144.94;;;16.41;100.00
49949;BME280;35840;45.982;8.890;2023-09-19T04:23:33;98145.59;;;16.23;100.00
49949;BME280;35840;45.982;8.890;2023-09-19T04:25:59;98154.63;;;16.29;100.00
49949;BME280;35840;45.982;8.890;2023-09-19T04:28:26;98147.91;;;16.26;100.00
49949;BME280;35840;45.982;8.890;2023-09-19T04:30:54;98153.78;;;16.28;100.00
49949;BME280;35840;45.982;8.890;2023-09-19T04:33:22;98152.41;;;16.24;100.00
49949;BME280;35840;45.982;8.890;2023-09-19T04:35:50;98161.28;;;16.31;100.00
49949;BME280;35840;45.982;8.890;2023-09-19T04:38:18;98161.13;;;16.13;100.00
49949;BME280;35840;45.982;8.890;2023-09-19T04:40:48;98157.53;;;16.05;100.00
49949;BME280;35840;45.982;8.890;2023-09-19T04:43:15;98163.28;;;15.98;100.00
49949;BME280;35840;45.982;8.890;2023-09-19T04:45:42;98163.00;;;16.01;100.00
49949;BME280;35840;45.982;8.890;2023-09-19T04:48:09;98170.25;;;15.98;100.00
49949;BME280;35840;45.982;8.890;2023-09-19T04:50:37;98171.88;;;16.09;100.00
49949;BME280;35840;45.982;8.890;2023-09-19T04:53:04;98167.91;;;16.05;100.00
49949;BME280;35840;45.982;8.890;2023-09-19T04:55:31;98171.63;;;16.02;100.00
49949;BME280;35840;45.982;8.890;2023-09-19T04:57:59;98168.31;;;16.00;100.00
49949;BME280;35840;45.982;8.890;2023-09-19T05:00:26;98176.09;;;16.00;100.00
49949;BME280;35840;45.982;8.890;2023-09-19T05:02:57;98179.41;;;16.02;100.00
49949;BME280;35840;45.982;8.890;2023-09-19T05:05:24;98168.50;;;15.77;100.00
49949;BME280;35840;45.982;8.890;2023-09-19T05:07:53;98180.50;;;15.78;100.00
49949;BME280;35840;45.982;8.890;2023-09-19T05:10:23;98180.94;;;15.53;100.00
49949;BME280;35840;45.982;8.890;2023-09-19T05:12:53;98176.09;;;15.38;100.00
49949;BME280;35840;45.982;8.890;2023-09-19T05:15:19;98182.81;;;15.50;100.00
49949;BME280;35840;45.982;8.890;2023-09-19T05:17:52;98184.25;;;15.64;100.00
49949;BME280;35840;45.982;8.890;2023-09-19T05:20:24;98184.38;;;15.84;100.00
49949;BME280;35840;45.982;8.890;2023-09-19T05:23:04;98181.25;;;15.90;100.00
49949;BME280;35840;45.982;8.890;2023-09-19T05:25:35;98184.97;;;15.97;100.00
49949;BME280;35840;45.982;8.890;2023-09-19T05:28:07;98185.25;;;16.04;100.00
49949;BME280;35840;45.982;8.890;2023-09-19T05:30:35;98185.56;;;16.11;100.00
49949;BME280;35840;45.982;8.890;2023-09-19T05:33:05;98185.97;;;16.06;100.00
49949;BME280;35840;45.982;8.890;2023-09-19T05:35:32;98182.69;;;16.14;100.00
49949;BME280;35840;45.982;8.890;2023-09-19T05:38:00;98181.84;;;16.04;100.00
49949;BME280;35840;45.982;8.890;2023-09-19T05:40:26;98188.09;;;15.91;100.00
49949;BME280;35840;45.982;8.890;2023-09-19T05:42:54;98196.53;;;15.83;100.00
49949;BME280;35840;45.982;8.890;2023-09-19T05:45:20;98200.75;;;15.84;100.00
49949;BME280;35840;45.982;8.890;2023-09-19T05:47:51;98203.47;;;15.83;100.00
49949;BME280;35840;45.982;8.890;2023-09-19T05:50:22;98203.47;;;15.83;100.00
49949;BME280;35840;45.982;8.890;2023-09-19T05:52:52;98203.28;;;16.06;100.00
49949;BME280;35840;45.982;8.890;2023-09-19T05:55:19;98203.03;;;16.18;100.00
49949;BME280;35840;45.982;8.890;2023-09-19T05:57:51;98196.00;;;16.30;100.00
49949;BME280;35840;45.982;8.890;2023-09-19T06:00:19;98174.84;;;16.35;100.00
49949;BME280;35840;45.982;8.890;2023-09-19T06:02:52;98194.22;;;16.41;100.00
49949;BME280;35840;45.982;8.890;2023-09-19T06:05:19;98199.72;;;16.47;100.00
49949;BME280;35840;45.982;8.890;2023-09-19T06:07:46;98204.34;;;16.53;100.00
49949;BME280;35840;45.982;8.890;2023-09-19T06:10:14;98205.16;;;16.54;100.00
49949;BME280;35840;45.982;8.890;2023-09-19T06:12:42;98204.59;;;16.41;100.00
49949;BME280;35840;45.982;8.890;2023-09-19T06:15:15;98202.81;;;16.31;100.00
49949;BME280;35840;45.982;8.890;2023-09-19T06:17:53;98211.16;;;16.35;100.00
49949;BME280;35840;45.982;8.890;2023-09-19T06:20:25;98214.31;;;16.48;100.00
49949;BME280;35840;45.982;8.890;2023-09-19T06:22:53;98209.28;;;16.57;100.00
49949;BME280;35840;45.982;8.890;2023-09-19T06:25:20;98212.97;;;16.64;100.00
49949;BME280;35840;45.982;8.890;2023-09-19T06:27:50;98215.72;;;16.72;100.00
49949;BME280;35840;45.982;8.890;2023-09-19T06:30:19;98221.59;;;16.74;100.00
49949;BME280;35840;45.982;8.890;2023-09-19T06:32:47;98229.94;;;16.78;100.00
49949;BME280;35840;45.982;8.890;2023-09-19T06:35:15;98230.88;;;16.86;100.00
49949;BME280;35840;45.982;8.890;2023-09-19T06:37:43;98221.72;;;16.73;100.00
49949;BME280;35840;45.982;8.890;2023-09-19T06:40:11;98227.72;;;16.63;100.00
49949;BME280;35840;45.982;8.890;2023-09-19T06:42:43;98233.06;;;16.72;100.00
49949;BME280;35840;45.982;8.890;2023-09-19T06:45:15;98223.22;;;16.75;100.00
49949;BME280;35840;45.982;8.890;2023-09-19T06:47:46;98233.47;;;16.77;100.00
49949;BME280;35840;45.982;8.890;2023-09-19T06:50:17;98230.06;;;16.86;100.00
49949;BME280;35840;45.982;8.890;2023-09-19T06:52:46;98228.41;;;16.75;100.00
49949;BME280;35840;45.982;8.890;2023-09-19T06:55:18;98227.47;;;16.86;100.00
49949;BME280;35840;45.982;8.890;2023-09-19T06:57:47;98223.09;;;16.86;100.00
49949;BME280;35840;45.982;8.890;2023-09-19T07:00:15;98233.25;;;16.99;100.00
49949;BME280;35840;45.982;8.890;2023-09-19T07:02:42;98239.50;;;16.87;100.00
49949;BME280;35840;45.982;8.890;2023-09-19T07:05:10;98235.03;;;16.89;100.00
49949;BME280;35840;45.982;8.890;2023-09-19T07:07:37;98239.94;;;16.92;100.00
49949;BME280;35840;45.982;8.890;2023-09-19T07:10:04;98232.56;;;16.97;100.00
49949;BME280;35840;45.982;8.890;2023-09-19T07:12:37;98235.97;;;17.08;100.00
49949;BME280;35840;45.982;8.890;2023-09-19T07:15:04;98235.03;;;17.09;100.00
49949;BME280;35840;45.982;8.890;2023-09-19T07:17:32;98237.91;;;16.96;100.00
49949;BME280;35840;45.982;8.890;2023-09-19T07:19:59;98240.22;;;16.99;100.00
49949;BME280;35840;45.982;8.890;2023-09-19T07:22:27;98239.81;;;17.13;100.00
49949;BME280;35840;45.982;8.890;2023-09-19T07:24:53;98244.06;;;17.24;100.00
49949;BME280;35840;45.982;8.890;2023-09-19T07:27:21;98242.53;;;17.31;100.00
49949;BME280;35840;45.982;8.890;2023-09-19T07:29:48;98242.66;;;17.40;100.00
49949;BME280;35840;45.982;8.890;2023-09-19T07:32:18;98246.34;;;17.47;100.00
49949;BME280;35840;45.982;8.890;2023-09-19T07:34:45;98252.78;;;17.52;100.00
49949;BME280;35840;45.982;8.890;2023-09-19T07:37:12;98255.91;;;17.56;100.00
49949;BME280;35840;45.982;8.890;2023-09-19T07:39:42;98252.63;;;17.54;100.00
49949;BME280;35840;45.982;8.890;2023-09-19T07:42:10;98258.91;;;17.61;100.00
49949;BME280;35840;45.982;8.890;2023-09-19T07:44:38;98250.69;;;17.56;100.00
49949;BME280;35840;45.982;8.890;2023-09-19T07:47:04;98256.97;;;17.63;100.00
49949;BME280;35840;45.982;8.890;2023-09-19T07:49:31;98257.66;;;17.65;100.00
49949;BME280;35840;45.982;8.890;2023-09-19T07:51:58;98254.78;;;17.68;100.00
49949;BME280;35840;45.982;8.890;2023-09-19T07:54:25;98255.84;;;17.76;100.00
49949;BME280;35840;45.982;8.890;2023-09-19T07:56:56;98262.13;;;17.83;100.00
49949;BME280;35840;45.982;8.890;2023-09-19T07:59:24;98260.47;;;17.82;100.00
49949;BME280;35840;45.982;8.890;2023-09-19T08:01:51;98257.06;;;17.91;100.00
49949;BME280;35840;45.982;8.890;2023-09-19T08:04:19;98267.59;;;17.99;100.00
49949;BME280;35840;45.982;8.890;2023-09-19T08:06:46;98270.19;;;17.99;100.00
49949;BME280;35840;45.982;8.890;2023-09-19T08:09:12;98261.81;;;18.05;100.00
49949;BME280;35840;45.982;8.890;2023-09-19T08:11:49;98266.06;;;18.06;100.00
49949;BME280;35840;45.982;8.890;2023-09-19T08:14:17;98261.66;;;18.07;100.00
49949;BME280;35840;45.982;8.890;2023-09-19T08:16:44;98265.38;;;18.04;100.00
49949;BME280;35840;45.982;8.890;2023-09-19T08:19:11;98262.75;;;18.04;100.00
49949;BME280;35840;45.982;8.890;2023-09-19T08:21:37;98262.34;;;18.09;100.00
49949;BME280;35840;45.982;8.890;2023-09-19T08:24:04;98258.38;;;18.15;100.00
49949;BME280;35840;45.982;8.890;2023-09-19T08:26:32;98254.78;;;18.16;100.00
49949;BME280;35840;45.982;8.890;2023-09-19T08:28:59;98255.91;;;18.13;100.00
49949;BME280;35840;45.982;8.890;2023-09-19T08:31:32;98254.38;;;18.20;100.00
49949;BME280;35840;45.982;8.890;2023-09-19T08:34:00;98259.28;;;18.23;98.20
49949;BME280;35840;45.982;8.890;2023-09-19T08:36:27;98258.69;;;18.30;98.76
49949;BME280;35840;45.982;8.890;2023-09-19T08:38:54;98263.91;;;18.30;97.82
49949;BME280;35840;45.982;8.890;2023-09-19T08:41:21;98257.97;;;18.37;99.01
49949;BME280;35840;45.982;8.890;2023-09-19T08:43:47;98263.28;;;18.46;100.00
49949;BME280;35840;45.982;8.890;2023-09-19T08:46:15;98258.34;;;18.42;98.08
49949;BME280;35840;45.982;8.890;2023-09-19T08:48:54;98263.28;;;18.46;100.00
49949;BME280;35840;45.982;8.890;2023-09-19T08:51:32;98260.38;;;18.49;98.72
49949;BME280;35840;45.982;8.890;2023-09-19T08:54:08;98261.00;;;18.61;99.83
49949;BME280;35840;45.982;8.890;2023-09-19T08:56:41;98254.28;;;18.58;95.92
49949;BME280;35840;45.982;8.890;2023-09-19T08:59:09;98260.59;;;18.55;94.08
49949;BME280;35840;45.982;8.890;2023-09-19T09:01:40;98259.50;;;18.58;92.97
49949;BME280;35840;45.982;8.890;2023-09-19T09:04:09;98262.78;;;18.60;91.47
49949;BME280;35840;45.982;8.890;2023-09-19T09:06:42;98253.78;;;18.72;92.04
49949;BME280;35840;45.982;8.890;2023-09-19T09:09:11;98249.91;;;18.76;93.64
49949;BME280;35840;45.982;8.890;2023-09-19T09:11:39;98254.25;;;18.86;96.02
49949;BME280;35840;45.982;8.890;2023-09-19T09:14:07;98244.66;;;18.86;96.71
49949;BME280;35840;45.982;8.890;2023-09-19T09:16:34;98249.81;;;18.96;97.87
49949;BME280;35840;45.982;8.890;2023-09-19T09:19:01;98247.22;;;18.96;98.57
49949;BME280;35840;45.982;8.890;2023-09-19T09:21:28;98253.63;;;19.02;98.58
49949;BME280;35840;45.982;8.890;2023-09-19T09:23:55;98253.47;;;19.03;98.27
49949;BME280;35840;45.982;8.890;2023-09-19T09:29:03;98262.38;;;19.19;97.47
49949;BME280;35840;45.982;8.890;2023-09-19T09:31:30;98257.25;;;19.27;100.00
49949;BME280;35840;45.982;8.890;2023-09-19T09:33:58;98247.41;;;19.39;99.75
49949;BME280;35840;45.982;8.890;2023-09-19T09:36:40;98257.47;;;19.34;90.77
49949;BME280;35840;45.982;8.890;2023-09-19T09:39:08;98252.09;;;19.35;91.52
49949;BME280;35840;45.982;8.890;2023-09-19T09:41:52;98254.16;;;19.50;97.17
49949;BME280;35840;45.982;8.890;2023-09-19T09:44:19;98252.56;;;19.57;98.08
49949;BME280;35840;45.982;8.890;2023-09-19T09:46:47;98247.97;;;19.51;95.50
49949;BME280;35840;45.982;8.890;2023-09-19T09:49:25;98243.09;;;19.56;90.90
49949;BME280;35840;45.982;8.890;2023-09-19T09:52:06;98242.22;;;19.65;96.10
49949;BME280;35840;45.982;8.890;2023-09-19T09:55:04;98238.97;;;19.71;91.73
49949;BME280;35840;45.982;8.890;2023-09-19T09:57:34;98242.69;;;19.87;94.99
49949;BME280;35840;45.982;8.890;2023-09-19T10:00:03;98230.97;;;19.91;93.02
49949;BME280;35840;45.982;8.890;2023-09-19T10:02:39;98234.63;;;20.06;90.42
49949;BME280;35840;45.982;8.890;2023-09-19T10:05:16;98226.47;;;20.09;92.68
49949;BME280;35840;45.982;8.890;2023-09-19T10:07:55;98227.84;;;20.22;90.76
49949;BME280;35840;45.982;8.890;2023-09-19T10:10:35;98222.63;;;20.22;90.83
49949;BME280;35840;45.982;8.890;2023-09-19T10:13:09;98215.94;;;20.27;89.92
49949;BME280;35840;45.982;8.890;2023-09-19T10:15:42;98223.78;;;20.27;88.85
49949;BME280;35840;45.982;8.890;2023-09-19T10:18:19;98216.72;;;20.20;89.07
49949;BME280;35840;45.982;8.890;2023-09-19T10:20:46;98214.81;;;20.38;91.87
49949;BME280;35840;45.982;8.890;2023-09-19T10:23:17;98218.41;;;20.45;90.69
49949;BME280;35840;45.982;8.890;2023-09-19T10:25:49;98219.75;;;20.50;88.90
49949;BME280;35840;45.982;8.890;2023-09-19T10:28:18;98225.19;;;20.64;90.18
49949;BME280;35840;45.982;8.890;2023-09-19T10:30:51;98221.16;;;20.78;85.37
49949;BME280;35840;45.982;8.890;2023-09-19T10:33:20;98221.94;;;20.71;82.67
49949;BME280;35840;45.982;8.890;2023-09-19T10:35:49;98229.97;;;20.86;83.78
49949;BME280;35840;45.982;8.890;2023-09-19T10:38:18;98212.50;;;20.86;82.13
49949;BME280;35840;45.982;8.890;2023-09-19T10:40:53;98227.69;;;20.91;84.36
49949;BME280;35840;45.982;8.890;2023-09-19T10:43:21;98225.91;;;20.91;87.08
49949;BME280;35840;45.982;8.890;2023-09-19T10:45:49;98218.69;;;20.93;88.29
49949;BME280;35840;45.982;8.890;2023-09-19T10:48:19;98211.03;;;21.00;87.57
49949;BME280;35840;45.982;8.890;2023-09-19T10:51:02;98219.34;;;21.12;88.92
49949;BME280;35840;45.982;8.890;2023-09-19T10:56:08;98206.94;;;21.14;80.26
49949;BME280;35840;45.982;8.890;2023-09-19T10:58:41;98206.94;;;21.22;77.55
49949;BME280;35840;45.982;8.890;2023-09-19T11:01:11;98214.63;;;21.15;78.28
49949;BME280;35840;45.982;8.890;2023-09-19T11:03:39;98208.09;;;21.03;78.49
49949;BME280;35840;45.982;8.890;2023-09-19T11:06:17;98203.38;;;21.07;74.82
49949;BME280;35840;45.982;8.890;2023-09-19T11:08:58;98211.03;;;21.08;77.36
49949;BME280;35840;45.982;8.890;2023-09-19T11:11:52;98210.03;;;21.26;79.09
49949;BME280;35840;45.982;8.890;2023-09-19T11:30:51;98196.41;;;21.72;71.04
49949;BME280;35840;45.982;8.890;2023-09-19T11:33:28;98196.41;;;21.72;72.36
49949;BME280;35840;45.982;8.890;2023-09-19T11:43:49;98193.59;;;21.81;75.86
49949;BME280;35840;45.982;8.890;2023-09-19T11:46:21;98184.75;;;21.91;77.87
49949;BME280;35840;45.982;8.890;2023-09-19T11:48:49;98185.38;;;21.93;74.69
49949;BME280;35840;45.982;8.890;2023-09-19T11:51:18;98187.63;;;22.04;72.96
49949;BME280;35840;45.982;8.890;2023-09-19T11:53:58;98184.50;;;22.09;70.24
49949;BME280;35840;45.982;8.890;2023-09-19T11:56:28;98181.78;;;22.25;71.22
49949;BME280;35840;45.982;8.890;2023-09-19T11:58:58;98186.31;;;22.40;71.93
49949;BME280;35840;45.982;8.890;2023-09-19T12:01:31;98167.75;;;22.18;68.36
49949;BME280;35840;45.982;8.890;2023-09-19T12:04:01;98174.28;;;22.22;71.73
49949;BME280;35840;45.982;8.890;2023-09-19T12:06:30;98170.50;;;22.33;70.45
49949;BME280;35840;45.982;8.890;2023-09-19T12:08:59;98169.50;;;22.34;69.98
49949;BME280;35840;45.982;8.890;2023-09-19T12:11:29;98166.81;;;22.42;68.94
49949;BME280;35840;45.982;8.890;2023-09-19T12:14:01;98158.00;;;22.43;70.47
49949;BME280;35840;45.982;8.890;2023-09-19T12:16:29;98171.50;;;22.55;71.09
49949;BME280;35840;45.982;8.890;2023-09-19T12:19:18;98159.25;;;22.70;68.21
49949;BME280;35840;45.982;8.890;2023-09-19T12:22:01;98154.06;;;22.62;69.22
49949;BME280;35840;45.982;8.890;2023-09-19T12:24:32;98167.00;;;22.87;69.18
49949;BME280;35840;45.982;8.890;2023-09-19T12:27:01;98155.88;;;22.85;65.81
49949;BME280;35840;45.982;8.890;2023-09-19T12:29:28;98152.63;;;22.83;68.35
49949;BME280;35840;45.982;8.890;2023-09-19T12:31:59;98162.00;;;22.77;66.71
49949;BME280;35840;45.982;8.890;2023-09-19T12:34:30;98152.50;;;22.76;68.50
49949;BME280;35840;45.982;8.890;2023-09-19T12:37:08;98161.41;;;22.90;68.27
49949;BME280;35840;45.982;8.890;2023-09-19T12:39:39;98145.94;;;23.18;66.11
49949;BME280;35840;45.982;8.890;2023-09-19T12:42:11;98155.00;;;23.31;66.65
49949;BME280;35840;45.982;8.890;2023-09-19T12:44:45;98149.22;;;23.35;63.90
49949;BME280;35840;45.982;8.890;2023-09-19T12:47:15;98152.91;;;23.26;68.32
49949;BME280;35840;45.982;8.890;2023-09-19T12:52:52;98152.56;;;23.44;66.53
49949;BME280;35840;45.982;8.890;2023-09-19T12:55:29;98139.25;;;23.46;66.37
49949;BME280;35840;45.982;8.890;2023-09-19T12:58:07;98142.88;;;23.60;67.37
49949;BME280;35840;45.982;8.890;2023-09-19T13:00:40;98144.44;;;23.69;68.89
49949;BME280;35840;45.982;8.890;2023-09-19T13:05:55;98134.13;;;23.67;69.41
49949;BME280;35840;45.982;8.890;2023-09-19T13:11:15;98133.81;;;23.77;69.38
49949;BME280;35840;45.982;8.890;2023-09-19T13:13:46;98133.81;;;23.77;68.35
49949;BME280;35840;45.982;8.890;2023-09-19T13:16:21;98128.75;;;23.91;69.36
49949;BME280;35840;45.982;8.890;2023-09-19T13:18:53;98137.06;;;23.94;70.75
49949;BME280;35840;45.982;8.890;2023-09-19T13:21:28;98129.28;;;24.01;70.72
49949;BME280;35840;45.982;8.890;2023-09-19T13:23:58;98126.28;;;24.04;69.13
49949;BME280;35840;45.982;8.890;2023-09-19T13:26:43;98125.91;;;24.07;63.88
49949;BME280;35840;45.982;8.890;2023-09-19T13:29:09;98114.16;;;24.03;67.50
49949;BME280;35840;45.982;8.890;2023-09-19T13:31:36;98114.47;;;24.15;66.71
49949;BME280;35840;45.982;8.890;2023-09-19T13:34:08;98113.13;;;24.19;65.92
49949;BME280;35840;45.982;8.890;2023-09-19T13:36:34;98110.56;;;24.26;69.28
49949;BME280;35840;45.982;8.890;2023-09-19T13:39:01;98113.22;;;24.32;66.82
49949;BME280;35840;45.982;8.890;2023-09-19T13:41:28;98123.44;;;24.42;67.97
49949;BME280;35840;45.982;8.890;2023-09-19T13:43:55;98119.50;;;24.53;66.73
49949;BME280;35840;45.982;8.890;2023-09-19T13:46:23;98122.31;;;24.51;64.45
49949;BME280;35840;45.982;8.890;2023-09-19T13:48:53;98111.16;;;24.49;66.23
49949;BME280;35840;45.982;8.890;2023-09-19T13:51:22;98111.69;;;24.60;65.48
49949;BME280;35840;45.982;8.890;2023-09-19T13:53:49;98111.34;;;24.63;64.68
49949;BME280;35840;45.982;8.890;2023-09-19T13:56:17;98112.81;;;24.72;65.61
49949;BME280;35840;45.982;8.890;2023-09-19T13:58:43;98110.00;;;24.73;63.68
49949;BME280;35840;45.982;8.890;2023-09-19T14:01:10;98104.91;;;24.72;66.07
49949;BME280;35840;45.982;8.890;2023-09-19T14:03:40;98106.81;;;24.78;64.99
49949;BME280;35840;45.982;8.890;2023-09-19T14:06:07;98106.03;;;24.84;66.34
49949;BME280;35840;45.982;8.890;2023-09-19T14:08:34;98107.53;;;24.94;66.44